Time,TemperatureF,DewpointF,PressureIn,WindDirection,WindDirectionDegrees,WindSpeedMPH,WindSpeedGustMPH,Humidity,HourlyPrecipIn,Conditions,Clouds,dailyrainin,SoftwareType,DateUTC
2013-10-15 00:22:00,37.0,36.0,29.98,NW,315,0.0,0.0,95,0.00,,,0.15,,2013-10-15 06:22:00,
2013-10-15 00:42:00,37.0,36.0,29.98,South,180,0.0,0.0,95,0.00,,,0.15,,2013-10-15 06:42:00,
2013-10-15 00:52:00,37.0,36.0,29.98,South,180,0.0,0.0,95,0.00,,,0.15,,2013-10-15 06:52:00,
2013-10-15 01:21:00,34.0,33.0,29.97,South,180,2.0,3.0,95,0.00,,,0.15,,2013-10-15 07:21:00,
2013-10-15 01:52:00,36.0,35.0,29.97,South,180,2.0,3.0,95,0.00,,,0.15,,2013-10-15 07:52:00,
2013-10-15 02:21:00,34.0,33.0,29.98,South,180,2.0,4.0,95,0.00,,,0.15,,2013-10-15 08:21:00,
2013-10-15 02:42:00,33.0,32.0,29.97,South,180,2.0,3.0,95,0.00,,,0.15,,2013-10-15 08:42:00,
2013-10-15 02:52:00,33.0,32.0,29.97,South,180,2.0,2.0,95,0.00,,,0.15,,2013-10-15 08:52:00,
2013-10-15 03:22:00,34.0,33.0,29.97,South,180,2.0,2.0,95,0.00,,,0.14,,2013-10-15 09:22:00,
2013-10-15 03:53:00,34.0,33.0,29.97,SSE,157,1.0,2.0,95,0.00,,,0.11,,2013-10-15 09:53:00,
2013-10-15 04:23:00,34.0,33.0,29.96,South,180,2.0,2.0,95,0.00,,,0.11,,2013-10-15 10:23:00,
2013-10-15 04:42:00,35.0,34.0,29.97,South,180,2.0,2.0,95,0.00,,,0.08,,2013-10-15 10:42:00,
2013-10-15 04:52:00,36.0,35.0,29.97,South,180,1.0,2.0,95,0.00,,,0.08,,2013-10-15 10:52:00,
2013-10-15 05:22:00,37.0,36.0,29.97,ESE,112,0.0,0.0,95,0.00,,,0.08,,2013-10-15 11:22:00,
2013-10-15 05:42:00,37.0,36.0,29.97,SSW,202,1.0,2.0,95,0.00,,,0.08,,2013-10-15 11:42:00,
2013-10-15 05:52:00,37.0,36.0,29.97,SE,135,2.0,2.0,95,0.00,,,0.08,,2013-10-15 11:52:00,
2013-10-15 06:21:00,38.0,37.0,29.98,SE,135,0.0,0.0,96,0.00,,,0.08,,2013-10-15 12:21:00,
2013-10-15 06:41:00,38.0,37.0,29.98,SE,135,0.0,0.0,96,0.00,,,0.08,,2013-10-15 12:41:00,
2013-10-15 06:52:00,38.0,37.0,29.98,SSE,157,1.0,2.0,96,0.00,,,0.08,,2013-10-15 12:52:00,
2013-10-15 07:11:00,38.0,37.0,29.98,SSE,157,0.0,0.0,96,0.00,,,0.08,,2013-10-15 13:11:00,
2013-10-15 07:21:00,38.0,37.0,29.98,SSE,157,0.0,0.0,96,0.00,,,0.08,,2013-10-15 13:21:00,
2013-10-15 07:41:00,38.0,37.0,29.98,SSE,157,1.0,2.0,96,0.00,,,0.08,,2013-10-15 13:41:00,
2013-10-15 07:52:00,38.0,37.0,29.98,SSE,157,2.0,2.0,96,0.00,,,0.08,,2013-10-15 13:52:00,
2013-10-15 08:21:00,39.0,38.0,30.00,SSE,157,2.0,2.0,96,0.00,,,0.08,,2013-10-15 14:21:00,
2013-10-15 08:42:00,39.0,38.0,30.00,SSE,157,2.0,2.0,96,0.00,,,0.08,,2013-10-15 14:42:00,
2013-10-15 08:52:00,39.0,38.0,30.01,SSE,157,0.0,0.0,96,0.00,,,0.08,,2013-10-15 14:52:00,
2013-10-15 09:22:00,40.0,39.0,30.02,SSE,157,1.0,2.0,96,0.00,,,0.08,,2013-10-15 15:22:00,
2013-10-15 09:43:00,41.0,40.0,30.02,East,90,2.0,2.0,96,0.00,,,0.08,,2013-10-15 15:43:00,
2013-10-15 09:53:00,41.0,40.0,30.02,ENE,67,2.0,3.0,95,0.00,,,0.08,,2013-10-15 15:53:00,
2013-10-15 10:22:00,42.0,39.0,30.03,NE,45,3.0,4.0,89,0.00,,,0.08,,2013-10-15 16:22:00,
2013-10-15 10:42:00,42.0,39.0,30.03,NE,45,1.0,2.0,89,0.00,,,0.08,,2013-10-15 16:42:00,
2013-10-15 10:53:00,42.0,38.0,30.03,NE,45,5.0,7.0,87,0.00,,,0.08,,2013-10-15 16:53:00,
2013-10-15 11:22:00,45.0,40.0,30.03,North,360,3.0,0.0,82,0.00,,,0.08,,2013-10-15 17:22:00,
2013-10-15 11:42:00,45.0,39.0,30.03,NNE,22,5.0,7.0,79,0.00,,,0.08,,2013-10-15 17:42:00,
2013-10-15 11:53:00,47.0,40.0,30.05,NE,45,1.0,2.0,76,0.00,,,0.08,,2013-10-15 17:53:00,
2013-10-15 12:21:00,46.0,38.0,30.03,WNW,292,3.0,5.0,74,0.00,,,0.08,,2013-10-15 18:21:00,
2013-10-15 12:42:00,47.0,38.0,30.03,West,270,2.0,2.0,70,0.00,,,0.08,,2013-10-15 18:42:00,
2013-10-15 12:52:00,47.0,38.0,30.03,North,360,3.0,5.0,70,0.00,,,0.08,,2013-10-15 18:52:00,
2013-10-15 13:21:00,48.0,38.0,30.02,North,360,2.0,4.0,68,0.00,,,0.07,,2013-10-15 19:21:00,
2013-10-15 13:42:00,49.0,39.0,30.02,North,360,4.0,7.0,68,0.00,,,0.07,,2013-10-15 19:42:00,
2013-10-15 13:52:00,50.0,39.0,30.02,NNW,337,3.0,6.0,67,0.00,,,0.07,,2013-10-15 19:52:00,
2013-10-15 14:21:00,47.0,37.0,30.00,North,360,4.0,7.0,69,0.00,,,0.07,,2013-10-15 20:21:00,
2013-10-15 14:42:00,48.0,38.0,30.00,NW,315,7.0,12.0,68,0.00,,,0.07,,2013-10-15 20:42:00,
2013-10-15 14:52:00,50.0,38.0,30.01,North,360,4.0,8.0,62,0.00,,,0.07,,2013-10-15 20:52:00,
2013-10-15 15:22:00,49.0,36.0,30.01,West,270,6.0,9.0,61,0.00,,,0.00,,2013-10-15 21:22:00,
2013-10-15 15:44:00,47.0,35.0,30.00,NW,315,3.0,5.0,63,0.00,,,0.00,,2013-10-15 21:44:00,
2013-10-15 15:54:00,47.0,36.0,30.00,NW,315,4.0,7.0,65,0.00,,,0.00,,2013-10-15 21:54:00,
2013-10-15 16:23:00,46.0,37.0,30.00,WNW,292,4.0,6.0,70,0.00,,,0.00,,2013-10-15 22:23:00,
2013-10-15 16:43:00,47.0,36.0,30.00,West,270,5.0,9.0,66,0.00,,,0.00,,2013-10-15 22:43:00,
2013-10-15 16:53:00,46.0,35.0,30.00,WNW,292,4.0,7.0,66,0.00,,,0.00,,2013-10-15 22:53:00,
2013-10-15 17:22:00,45.0,35.0,29.98,West,270,4.0,6.0,68,0.00,,,0.00,,2013-10-15 23:22:00,
2013-10-15 17:52:00,44.0,34.0,29.98,NW,315,5.0,7.0,67,0.00,,,0.00,,2013-10-15 23:52:00,
2013-10-15 18:11:00,44.0,36.0,29.98,WNW,292,4.0,6.0,74,0.00,,,0.00,,2013-10-16 00:11:00,
2013-10-15 18:22:00,43.0,36.0,29.97,NW,315,6.0,9.0,77,0.00,,,0.00,,2013-10-16 00:22:00,
2013-10-15 18:42:00,42.0,36.0,29.97,WSW,247,2.0,3.0,80,0.00,,,0.00,,2013-10-16 00:42:00,
2013-10-15 18:52:00,42.0,36.0,29.97,SW,225,2.0,5.0,80,0.00,,,0.00,,2013-10-16 00:52:00,
2013-10-15 19:22:00,41.0,37.0,29.98,SW,225,5.0,7.0,84,0.00,,,0.00,,2013-10-16 01:22:00,
2013-10-15 19:42:00,42.0,37.0,29.98,SW,225,5.0,6.0,82,0.00,,,0.00,,2013-10-16 01:42:00,
2013-10-15 19:52:00,42.0,37.0,29.98,SSW,202,6.0,8.0,81,0.00,,,0.00,,2013-10-16 01:52:00,
2013-10-15 20:22:00,40.0,36.0,29.98,SW,225,6.0,11.0,86,0.00,,,0.00,,2013-10-16 02:22:00,
2013-10-15 20:42:00,40.0,37.0,29.98,South,180,4.0,6.0,89,0.00,,,0.00,,2013-10-16 02:42:00,
2013-10-15 20:52:00,39.0,36.0,29.98,South,180,3.0,4.0,90,0.00,,,0.00,,2013-10-16 02:52:00,
2013-10-15 21:22:00,39.0,37.0,29.98,SSW,202,3.0,4.0,92,0.00,,,0.00,,2013-10-16 03:22:00,
2013-10-15 21:44:00,39.0,37.0,29.98,SE,135,2.0,4.0,91,0.00,,,0.00,,2013-10-16 03:44:00,
2013-10-15 21:54:00,39.0,37.0,29.98,SE,135,3.0,4.0,94,0.00,,,0.00,,2013-10-16 03:54:00,
2013-10-15 22:13:00,38.0,37.0,29.98,ESE,112,3.0,5.0,96,0.00,,,0.00,,2013-10-16 04:13:00,
2013-10-15 22:24:00,38.0,37.0,29.97,ESE,112,2.0,3.0,96,0.00,,,0.00,,2013-10-16 04:24:00,
2013-10-15 22:43:00,37.0,36.0,29.96,ESE,112,2.0,2.0,95,0.00,,,0.00,,2013-10-16 04:43:00,
2013-10-15 22:53:00,37.0,36.0,29.96,SSE,157,1.0,2.0,95,0.00,,,0.00,,2013-10-16 04:53:00,
2013-10-15 23:22:00,36.0,35.0,29.96,SSE,157,0.0,0.0,95,0.00,,,0.00,,2013-10-16 05:22:00,
2013-10-15 23:43:00,36.0,35.0,29.96,WNW,292,2.0,2.0,95,0.00,,,0.00,,2013-10-16 05:43:00,
2013-10-15 23:53:00,36.0,35.0,29.96,West,270,0.0,0.0,95,0.00,,,0.00,,2013-10-16 05:53:00,